createdAt,value
2023-03-22T00:01:09.339Z,8.10
2023-03-22T00:03:35.228Z,8.77
2023-03-22T00:06:01.098Z,12.73
2023-03-22T00:08:26.880Z,8.88
2023-03-22T00:10:52.697Z,9.35
2023-03-22T00:13:18.657Z,10.70
2023-03-22T00:15:47.933Z,7.47
2023-03-22T00:18:15.439Z,9.68
2023-03-22T00:20:56.211Z,9.95
2023-03-22T00:23:23.161Z,7.55
2023-03-22T00:25:49.643Z,9.85
2023-03-22T00:28:16.024Z,9.27
2023-03-22T00:30:43.237Z,10.35
2023-03-22T00:33:09.198Z,11.73
2023-03-22T00:35:35.297Z,9.30
2023-03-22T00:38:05.397Z,12.30
2023-03-22T00:40:32.689Z,8.50
2023-03-22T00:42:58.857Z,11.55
2023-03-22T00:45:25.049Z,8.07
2023-03-22T00:47:50.898Z,8.02
2023-03-22T00:50:16.765Z,10.45
2023-03-22T00:52:42.557Z,9.38
2023-03-22T00:55:08.478Z,10.80
2023-03-22T00:57:34.337Z,9.13
2023-03-22T01:00:07.326Z,10.25
2023-03-22T01:02:33.296Z,9.27
2023-03-22T01:04:59.095Z,8.93
2023-03-22T01:07:24.953Z,9.82
2023-03-22T01:09:51.028Z,10.73
2023-03-22T01:12:18.139Z,13.15
2023-03-22T01:14:44.213Z,9.10
2023-03-22T01:17:10.187Z,10.18
2023-03-22T01:19:37.410Z,9.32
2023-03-22T01:22:04.891Z,10.63
2023-03-22T01:24:30.889Z,8.23
2023-03-22T01:26:57.270Z,11.82
2023-03-22T01:29:24.282Z,12.43
2023-03-22T01:31:50.561Z,11.52
2023-03-22T01:34:16.803Z,10.00
2023-03-22T01:36:42.591Z,11.57
2023-03-22T01:39:08.434Z,11.27
2023-03-22T01:41:36.625Z,11.60
2023-03-22T01:44:12.124Z,10.07
2023-03-22T01:49:08.516Z,10.18
2023-03-22T01:51:34.612Z,8.80
2023-03-22T01:54:06.295Z,8.40
2023-03-22T01:56:35.224Z,15.90
2023-03-22T01:59:01.940Z,16.08
2023-03-22T02:01:28.607Z,14.02
2023-03-22T02:04:02.698Z,13.93
2023-03-22T02:06:29.339Z,12.85
2023-03-22T02:08:57.919Z,12.82
2023-03-22T02:11:32.985Z,9.27
2023-03-22T02:14:28.091Z,13.10
2023-03-22T02:17:15.100Z,12.48
2023-03-22T02:20:18.839Z,11.57
2023-03-22T02:23:09.332Z,15.45
2023-03-22T02:25:57.535Z,12.25
2023-03-22T02:28:57.189Z,9.05
2023-03-22T02:31:58.017Z,14.00
2023-03-22T02:34:45.168Z,12.98
2023-03-22T02:37:35.510Z,10.27
2023-03-22T02:40:27.410Z,14.95
2023-03-22T02:42:59.844Z,12.65
2023-03-22T02:45:30.735Z,13.73
2023-03-22T02:48:15.873Z,11.95
2023-03-22T02:50:55.949Z,16.60
2023-03-22T02:53:30.349Z,12.68
2023-03-22T02:56:08.476Z,13.57
2023-03-22T02:58:48.268Z,10.75
2023-03-22T03:01:26.585Z,13.25
2023-03-22T03:03:57.051Z,11.27
2023-03-22T03:06:26.245Z,10.35
2023-03-22T03:08:53.558Z,11.98
2023-03-22T03:11:20.541Z,10.90
2023-03-22T03:13:50.458Z,11.88
2023-03-22T03:16:26.768Z,10.82
2023-03-22T03:21:36.436Z,13.02
2023-03-22T03:24:07.930Z,10.57
2023-03-22T03:27:01.369Z,11.40
2023-03-22T03:29:47.770Z,16.27
2023-03-22T03:32:31.110Z,17.02
2023-03-22T03:35:04.736Z,14.32
2023-03-22T03:37:36.136Z,13.57
2023-03-22T03:40:09.198Z,17.95
2023-03-22T03:42:39.366Z,11.75
2023-03-22T03:45:06.670Z,14.45
2023-03-22T03:47:34.000Z,16.25
2023-03-22T03:49:59.983Z,13.25
2023-03-22T03:52:25.841Z,12.50
2023-03-22T03:54:51.910Z,17.15
2023-03-22T03:57:17.679Z,13.30
2023-03-22T03:59:43.503Z,13.05
2023-03-22T04:02:09.466Z,12.57
2023-03-22T04:04:35.315Z,15.88
2023-03-22T04:07:03.756Z,14.60
2023-03-22T04:09:35.628Z,13.80
2023-03-22T04:12:01.717Z,12.02
2023-03-22T04:14:27.763Z,15.20
2023-03-22T04:16:54.223Z,13.63
2023-03-22T04:19:20.157Z,21.08
2023-03-22T04:21:46.081Z,16.95
2023-03-22T04:24:12.789Z,13.00
2023-03-22T04:26:39.309Z,13.77
2023-03-22T04:29:05.235Z,16.40
2023-03-22T04:31:33.273Z,13.52
2023-03-22T04:34:04.799Z,19.00
2023-03-22T04:36:35.541Z,15.50
2023-03-22T04:39:09.775Z,13.45
2023-03-22T04:41:36.422Z,15.20
2023-03-22T04:44:03.632Z,14.80
2023-03-22T04:46:31.186Z,14.85
2023-03-22T04:48:57.155Z,14.73
2023-03-22T04:51:23.578Z,16.98
2023-03-22T04:53:49.331Z,15.18
2023-03-22T04:56:15.435Z,17.35
2023-03-22T04:58:43.332Z,14.70
2023-03-22T05:01:10.580Z,18.80
2023-03-22T05:03:36.572Z,14.98
2023-03-22T05:06:05.799Z,13.88
2023-03-22T05:08:32.440Z,15.50
2023-03-22T05:11:04.935Z,16.15
2023-03-22T05:13:30.910Z,13.75
2023-03-22T05:15:56.829Z,18.13
2023-03-22T05:18:26.041Z,16.30
2023-03-22T05:20:54.982Z,19.60
2023-03-22T05:23:21.529Z,15.38
2023-03-22T05:25:48.727Z,19.85
2023-03-22T05:28:15.585Z,16.42
2023-03-22T05:30:42.126Z,16.70
2023-03-22T05:33:08.830Z,18.70
2023-03-22T05:35:36.851Z,16.45
2023-03-22T05:38:04.071Z,14.85
2023-03-22T05:40:30.080Z,15.70
2023-03-22T05:42:56.105Z,17.90
2023-03-22T05:45:22.293Z,14.73
2023-03-22T05:47:48.491Z,19.17
2023-03-22T05:50:21.855Z,16.77
2023-03-22T05:52:48.773Z,20.77
2023-03-22T05:55:18.470Z,17.52
2023-03-22T05:57:50.671Z,18.52
2023-03-22T06:00:18.155Z,15.32
2023-03-22T06:02:46.542Z,14.52
2023-03-22T06:05:14.381Z,14.38
2023-03-22T06:07:40.800Z,15.13
2023-03-22T06:10:08.827Z,12.02
2023-03-22T06:12:34.776Z,14.45
2023-03-22T06:15:00.610Z,14.60
2023-03-22T06:17:26.583Z,14.55
2023-03-22T06:19:53.638Z,16.35
2023-03-22T06:22:20.700Z,14.38
2023-03-22T06:24:47.087Z,12.02
2023-03-22T06:27:13.256Z,15.20
2023-03-22T06:29:39.510Z,14.90
2023-03-22T06:32:05.914Z,16.85
2023-03-22T06:34:32.243Z,15.35
2023-03-22T06:36:58.071Z,12.68
2023-03-22T06:39:24.663Z,13.13
2023-03-22T06:41:50.927Z,15.32
2023-03-22T06:44:17.338Z,15.10
2023-03-22T06:46:43.218Z,15.32
2023-03-22T06:49:09.504Z,10.88
2023-03-22T06:51:35.381Z,12.57
2023-03-22T06:54:01.594Z,15.75
2023-03-22T06:56:27.401Z,13.07
2023-03-22T06:58:54.040Z,14.02
2023-03-22T07:01:23.051Z,11.32
2023-03-22T07:03:50.396Z,12.80
2023-03-22T07:06:16.311Z,13.15
2023-03-22T07:08:42.550Z,10.40
2023-03-22T07:11:08.509Z,15.85
2023-03-22T07:13:34.730Z,11.95
2023-03-22T07:16:02.189Z,16.23
2023-03-22T07:18:29.829Z,10.75
2023-03-22T07:20:55.785Z,12.70
2023-03-22T07:23:21.651Z,16.05
2023-03-22T07:25:48.282Z,9.30
2023-03-22T07:28:14.811Z,15.18
2023-03-22T07:30:41.162Z,12.85
2023-03-22T07:33:09.702Z,9.65
2023-03-22T07:35:37.152Z,17.75
2023-03-22T07:38:03.783Z,12.93
2023-03-22T07:40:30.309Z,9.63
2023-03-22T07:42:58.340Z,9.20
2023-03-22T07:45:25.250Z,11.40
2023-03-22T07:47:51.572Z,9.95
2023-03-22T07:50:17.543Z,12.70
2023-03-22T07:52:44.833Z,9.88
2023-03-22T07:55:12.873Z,14.77
2023-03-22T07:57:39.190Z,10.32
2023-03-22T08:00:06.839Z,11.93
2023-03-22T08:02:32.644Z,9.40
2023-03-22T08:04:58.569Z,13.85
2023-03-22T08:07:24.512Z,9.10
2023-03-22T08:09:50.959Z,9.10
2023-03-22T08:12:17.373Z,10.57
2023-03-22T08:14:47.339Z,8.93
2023-03-22T08:17:13.279Z,9.05
2023-03-22T08:19:39.659Z,9.93
2023-03-22T08:22:06.086Z,10.23
2023-03-22T08:24:31.933Z,10.57
2023-03-22T08:26:57.791Z,7.50
2023-03-22T08:29:23.695Z,8.65
2023-03-22T08:31:50.540Z,7.60
2023-03-22T08:34:16.587Z,8.65
2023-03-22T08:36:42.647Z,9.90
2023-03-22T08:39:08.821Z,7.72
2023-03-22T08:41:34.892Z,11.07
2023-03-22T08:44:01.001Z,12.27
2023-03-22T08:46:26.971Z,9.20
2023-03-22T08:48:53.134Z,13.63
2023-03-22T08:51:21.245Z,11.52
2023-03-22T08:53:48.175Z,9.75
2023-03-22T08:56:15.881Z,13.05
2023-03-22T08:58:45.837Z,8.95
2023-03-22T09:01:13.013Z,8.23
2023-03-22T09:03:39.199Z,11.27
2023-03-22T09:06:06.033Z,8.93
2023-03-22T09:08:35.355Z,13.88
2023-03-22T09:11:01.428Z,5.82
2023-03-22T09:13:27.753Z,9.02
2023-03-22T09:15:53.613Z,8.18
2023-03-22T09:18:19.536Z,5.40
2023-03-22T09:20:45.469Z,5.22
2023-03-22T09:23:16.793Z,8.05
2023-03-22T09:25:43.714Z,9.55
2023-03-22T09:28:09.669Z,10.55
2023-03-22T09:30:36.017Z,7.05
2023-03-22T09:33:02.423Z,5.85
2023-03-22T09:35:28.677Z,6.78
2023-03-22T09:37:55.373Z,8.73
2023-03-22T09:40:34.423Z,3.90
2023-03-22T09:43:07.007Z,8.00
2023-03-22T09:45:43.284Z,7.65
2023-03-22T09:48:39.937Z,7.90
2023-03-22T09:51:16.654Z,6.60
2023-03-22T09:53:42.460Z,4.35
2023-03-22T09:56:08.254Z,7.22
2023-03-22T09:58:52.556Z,2.88
2023-03-22T10:01:34.504Z,5.20
2023-03-22T10:04:29.067Z,7.32
2023-03-22T10:07:06.415Z,5.13
2023-03-22T10:09:54.032Z,4.20
2023-03-22T10:12:27.619Z,4.95
2023-03-22T10:15:09.706Z,5.30
2023-03-22T10:17:38.175Z,4.18
2023-03-22T10:20:43.296Z,5.13
2023-03-22T10:23:16.163Z,4.07
2023-03-22T10:25:42.997Z,4.93
2023-03-22T10:28:20.224Z,7.07
2023-03-22T10:30:52.779Z,1.88
2023-03-22T10:33:28.077Z,2.45
2023-03-22T10:35:55.172Z,6.07
2023-03-22T10:38:26.029Z,7.03
2023-03-22T10:40:55.118Z,6.05
2023-03-22T10:43:27.353Z,5.63
2023-03-22T10:45:55.959Z,5.10
2023-03-22T10:48:40.109Z,6.10
2023-03-22T10:51:06.974Z,6.40
2023-03-22T10:53:38.779Z,7.00
2023-03-22T10:56:10.581Z,2.92
2023-03-22T10:58:36.439Z,5.47
2023-03-22T11:01:10.417Z,4.75
2023-03-22T11:03:48.668Z,4.40
2023-03-22T11:06:25.441Z,5.25
2023-03-22T11:08:58.961Z,2.33
2023-03-22T11:11:35.980Z,3.25
2023-03-22T11:14:06.622Z,3.55
2023-03-22T11:17:00.383Z,1.67
2023-03-22T11:19:31.433Z,3.05
2023-03-22T11:21:59.048Z,3.63
2023-03-22T11:24:27.450Z,2.55
2023-03-22T11:27:22.149Z,3.50
2023-03-22T11:29:50.706Z,1.75
2023-03-22T11:32:21.384Z,2.72
2023-03-22T11:34:47.286Z,3.63
2023-03-22T11:37:18.072Z,3.17
2023-03-22T11:39:48.833Z,1.83
2023-03-22T11:42:20.222Z,2.10
2023-03-22T11:44:46.526Z,4.72
2023-03-22T11:47:13.348Z,2.15
2023-03-22T11:49:45.627Z,3.50
2023-03-22T11:52:22.404Z,3.53
2023-03-22T11:54:49.645Z,4.90
2023-03-22T11:57:20.870Z,5.57
2023-03-22T11:59:58.568Z,2.28
2023-03-22T12:02:35.120Z,2.72
2023-03-22T12:05:11.628Z,1.92
2023-03-22T12:07:39.195Z,2.03
2023-03-22T12:10:17.940Z,3.05
2023-03-22T12:13:45.568Z,6.18
2023-03-22T12:19:23.927Z,1.45
2023-03-22T12:21:50.985Z,3.95
2023-03-22T12:24:29.537Z,3.75
2023-03-22T12:27:00.294Z,3.33
2023-03-22T12:29:27.482Z,2.15
2023-03-22T12:32:02.712Z,1.83
2023-03-22T12:34:46.927Z,2.03
2023-03-22T12:37:25.276Z,4.22
2023-03-22T12:40:05.108Z,3.92
2023-03-22T12:42:40.650Z,2.33
2023-03-22T12:45:20.719Z,2.60
2023-03-22T12:47:56.457Z,1.38
2023-03-22T12:50:56.790Z,2.42
2023-03-22T12:53:29.906Z,6.15
2023-03-22T12:55:57.601Z,2.78
2023-03-22T12:58:25.872Z,3.97
2023-03-22T13:01:10.484Z,1.95
2023-03-22T13:03:46.104Z,4.10
2023-03-22T13:06:31.823Z,3.97
2023-03-22T13:09:12.333Z,1.88
2023-03-22T13:11:38.357Z,3.58
2023-03-22T13:14:04.189Z,4.07
2023-03-22T13:16:50.314Z,3.50
2023-03-22T13:19:25.961Z,6.93
2023-03-22T13:22:16.116Z,3.00
2023-03-22T13:25:23.010Z,3.22
2023-03-22T13:27:51.393Z,3.10
2023-03-22T13:30:26.350Z,1.77
2023-03-22T13:33:03.860Z,3.60
2023-03-22T13:36:05.855Z,3.92
2023-03-22T13:38:37.213Z,2.65
2023-03-22T13:41:07.377Z,4.78
2023-03-22T13:43:43.367Z,3.83
2023-03-22T13:46:25.777Z,5.25
2023-03-22T13:49:01.107Z,4.78
2023-03-22T13:51:31.035Z,5.50
2023-03-22T13:54:06.672Z,3.13
2023-03-22T13:56:41.629Z,7.50
2023-03-22T13:59:16.558Z,3.13
2023-03-22T14:01:49.505Z,3.25
2023-03-22T14:04:29.552Z,5.10
2023-03-22T14:06:59.537Z,4.30
2023-03-22T14:09:31.852Z,3.63
2023-03-22T14:12:17.336Z,2.78
2023-03-22T14:14:49.320Z,5.75
2023-03-22T14:17:38.270Z,5.03
2023-03-22T14:20:09.706Z,3.90
